sensor_id;sensor_type;location;lat;lon;timestamp;pressure;altitude;pressure_sealevel;temperature;humidity
76311;BME280;65120;59.304;18.294;2023-07-29T00:00:07;100258.53;;;14.05;69.87
76311;BME280;65120;59.304;18.294;2023-07-29T00:02:36;100255.97;;;14.04;70.01
76311;BME280;65120;59.304;18.294;2023-07-29T00:05:03;100262.13;;;14.03;69.95
76311;BME280;65120;59.304;18.294;2023-07-29T00:07:30;100257.81;;;14.02;70.11
76311;BME280;65120;59.304;18.294;2023-07-29T00:09:56;100259.59;;;14.01;70.10
76311;BME280;65120;59.304;18.294;2023-07-29T00:12:24;100260.56;;;13.99;70.16
76311;BME280;65120;59.304;18.294;2023-07-29T00:14:52;100257.97;;;13.97;70.36
76311;BME280;65120;59.304;18.294;2023-07-29T00:17:19;100253.66;;;13.96;70.40
76311;BME280;65120;59.304;18.294;2023-07-29T00:19:46;100254.59;;;13.95;70.62
76311;BME280;65120;59.304;18.294;2023-07-29T00:22:13;100252.84;;;13.94;70.58
76311;BME280;65120;59.304;18.294;2023-07-29T00:24:40;100248.53;;;13.93;70.64
76311;BME280;65120;59.304;18.294;2023-07-29T00:27:07;100247.69;;;13.92;70.81
76311;BME280;65120;59.304;18.294;2023-07-29T00:29:33;100241.63;;;13.90;70.72
76311;BME280;65120;59.304;18.294;2023-07-29T00:32:02;100239.94;;;13.89;70.90
76311;BME280;65120;59.304;18.294;2023-07-29T00:34:29;100241.72;;;13.89;70.83
76311;BME280;65120;59.304;18.294;2023-07-29T00:36:56;100233.03;;;13.87;70.71
76311;BME280;65120;59.304;18.294;2023-07-29T00:39:23;100227.78;;;13.87;70.67
76311;BME280;65120;59.304;18.294;2023-07-29T00:41:49;100228.81;;;13.83;70.86
76311;BME280;65120;59.304;18.294;2023-07-29T00:44:16;100207.38;;;13.71;70.97
76311;BME280;65120;59.304;18.294;2023-07-29T00:46:45;100234.00;;;13.84;70.96
76311;BME280;65120;59.304;18.294;2023-07-29T00:49:14;100231.38;;;13.84;70.84
76311;BME280;65120;59.304;18.294;2023-07-29T00:51:40;100235.84;;;13.82;70.89
76311;BME280;65120;59.304;18.294;2023-07-29T00:54:07;100228.03;;;13.81;70.84
76311;BME280;65120;59.304;18.294;2023-07-29T00:56:34;100228.94;;;13.80;70.98
76311;BME280;65120;59.304;18.294;2023-07-29T00:59:02;100228.94;;;13.80;70.96
76311;BME280;65120;59.304;18.294;2023-07-29T01:01:29;100220.34;;;13.76;71.05
76311;BME280;65120;59.304;18.294;2023-07-29T01:03:56;100227.28;;;13.77;71.03
76311;BME280;65120;59.304;18.294;2023-07-29T01:06:32;100223.81;;;13.77;71.18
76311;BME280;65120;59.304;18.294;2023-07-29T01:09:03;100216.88;;;13.76;71.29
76311;BME280;65120;59.304;18.294;2023-07-29T01:11:38;100215.16;;;13.75;71.21
76311;BME280;65120;59.304;18.294;2023-07-29T01:14:16;100214.53;;;13.68;71.15
76311;BME280;65120;59.304;18.294;2023-07-29T01:16:47;100214.41;;;13.71;71.30
76311;BME280;65120;59.304;18.294;2023-07-29T01:19:43;100225.75;;;13.71;71.26
76311;BME280;65120;59.304;18.294;2023-07-29T01:22:16;100216.38;;;13.66;71.33
76311;BME280;65120;59.304;18.294;2023-07-29T01:24:44;100207.47;;;13.70;71.37
76311;BME280;65120;59.304;18.294;2023-07-29T01:27:11;100209.25;;;13.69;71.56
76311;BME280;65120;59.304;18.294;2023-07-29T01:29:38;100202.47;;;13.64;71.43
76311;BME280;65120;59.304;18.294;2023-07-29T01:32:11;100214.53;;;13.68;71.59
76311;BME280;65120;59.304;18.294;2023-07-29T01:34:41;100212.84;;;13.67;71.62
76311;BME280;65120;59.304;18.294;2023-07-29T01:37:15;100212.00;;;13.66;71.37
76311;BME280;65120;59.304;18.294;2023-07-29T01:39:45;100209.38;;;13.66;71.48
76311;BME280;65120;59.304;18.294;2023-07-29T01:42:12;100205.88;;;13.66;71.41
76311;BME280;65120;59.304;18.294;2023-07-29T01:44:39;100209.41;;;13.65;71.38
76311;BME280;65120;59.304;18.294;2023-07-29T01:47:07;100205.94;;;13.64;71.34
76311;BME280;65120;59.304;18.294;2023-07-29T01:49:34;100199.97;;;13.61;71.46
76311;BME280;65120;59.304;18.294;2023-07-29T01:52:01;100207.78;;;13.62;71.25
76311;BME280;65120;59.304;18.294;2023-07-29T01:54:28;100203.50;;;13.60;71.44
76311;BME280;65120;59.304;18.294;2023-07-29T01:56:56;100200.88;;;13.60;71.26
76311;BME280;65120;59.304;18.294;2023-07-29T01:59:23;100202.72;;;13.58;71.20
76311;BME280;65120;59.304;18.294;2023-07-29T02:01:50;100203.56;;;13.58;71.37
76311;BME280;65120;59.304;18.294;2023-07-29T02:04:16;100204.47;;;13.57;71.34
76311;BME280;65120;59.304;18.294;2023-07-29T02:06:43;100197.53;;;13.56;71.17
76311;BME280;65120;59.304;18.294;2023-07-29T02:09:10;100204.59;;;13.54;71.37
76311;BME280;65120;59.304;18.294;2023-07-29T02:11:37;100207.22;;;13.54;71.40
76311;BME280;65120;59.304;18.294;2023-07-29T02:14:05;100188.28;;;13.46;71.30
76311;BME280;65120;59.304;18.294;2023-07-29T02:16:32;100199.47;;;13.51;71.43
76311;BME280;65120;59.304;18.294;2023-07-29T02:19:00;100200.41;;;13.50;71.41
76311;BME280;65120;59.304;18.294;2023-07-29T02:21:27;100198.75;;;13.47;71.35
76311;BME280;65120;59.304;18.294;2023-07-29T02:23:53;100195.19;;;13.48;71.39
76311;BME280;65120;59.304;18.294;2023-07-29T02:26:20;100196.97;;;13.48;71.55
76311;BME280;65120;59.304;18.294;2023-07-29T02:28:47;100197.94;;;13.45;71.53
76311;BME280;65120;59.304;18.294;2023-07-29T02:31:17;100201.41;;;13.46;71.58
76311;BME280;65120;59.304;18.294;2023-07-29T02:33:44;100206.66;;;13.46;71.64
76311;BME280;65120;59.304;18.294;2023-07-29T02:36:11;100196.38;;;13.41;71.52
76311;BME280;65120;59.304;18.294;2023-07-29T02:38:39;100205.88;;;13.44;71.48
76311;BME280;65120;59.304;18.294;2023-07-29T02:41:05;100198.91;;;13.43;71.54
76311;BME280;65120;59.304;18.294;2023-07-29T02:43:34;100198.91;;;13.43;71.65
76311;BME280;65120;59.304;18.294;2023-07-29T02:46:01;100191.97;;;13.42;71.69
76311;BME280;65120;59.304;18.294;2023-07-29T02:48:29;100191.97;;;13.42;71.97
76311;BME280;65120;59.304;18.294;2023-07-29T02:50:56;100193.78;;;13.40;71.90
76311;BME280;65120;59.304;18.294;2023-07-29T02:53:24;100201.63;;;13.41;72.23
76311;BME280;65120;59.304;18.294;2023-07-29T02:55:51;100209.47;;;13.41;72.18
76311;BME280;65120;59.304;18.294;2023-07-29T02:58:18;100195.63;;;13.38;72.32
76311;BME280;65120;59.304;18.294;2023-07-29T03:00:45;100199.88;;;13.40;72.33
76311;BME280;65120;59.304;18.294;2023-07-29T03:03:13;100200.75;;;13.41;72.48
76311;BME280;65120;59.304;18.294;2023-07-29T03:05:41;100194.63;;;13.40;72.54
76311;BME280;65120;59.304;18.294;2023-07-29T03:08:08;100192.00;;;13.40;72.40
76311;BME280;65120;59.304;18.294;2023-07-29T03:10:35;100195.53;;;13.41;72.61
76311;BME280;65120;59.304;18.294;2023-07-29T03:13:02;100185.03;;;13.41;72.51
76311;BME280;65120;59.304;18.294;2023-07-29T03:15:29;100185.91;;;13.40;72.61
76311;BME280;65120;59.304;18.294;2023-07-29T03:17:56;100179.78;;;13.41;72.73
76311;BME280;65120;59.304;18.294;2023-07-29T03:20:23;100147.53;;;13.15;72.84
76311;BME280;65120;59.304;18.294;2023-07-29T03:22:51;100174.75;;;13.35;72.92
76311;BME280;65120;59.304;18.294;2023-07-29T03:25:18;100191.97;;;13.42;72.83
76311;BME280;65120;59.304;18.294;2023-07-29T03:27:44;100162.91;;;13.24;72.91
76311;BME280;65120;59.304;18.294;2023-07-29T03:30:14;100187.53;;;13.44;73.08
76311;BME280;65120;59.304;18.294;2023-07-29T03:32:43;100179.78;;;13.41;73.02
76311;BME280;65120;59.304;18.294;2023-07-29T03:35:10;100181.34;;;13.45;73.09
76311;BME280;65120;59.304;18.294;2023-07-29T03:37:37;100187.44;;;13.45;73.29
76311;BME280;65120;59.304;18.294;2023-07-29T03:40:07;100194.41;;;13.46;73.31
76311;BME280;65120;59.304;18.294;2023-07-29T03:42:34;100197.91;;;13.47;73.23
76311;BME280;65120;59.304;18.294;2023-07-29T03:45:01;100202.22;;;13.48;73.37
76311;BME280;65120;59.304;18.294;2023-07-29T03:47:28;100201.31;;;13.49;73.36
76311;BME280;65120;59.304;18.294;2023-07-29T03:49:55;100202.09;;;13.51;73.52
76311;BME280;65120;59.304;18.294;2023-07-29T03:52:21;100195.94;;;13.52;73.57
76311;BME280;65120;59.304;18.294;2023-07-29T03:54:48;100195.88;;;13.54;73.76
76311;BME280;65120;59.304;18.294;2023-07-29T03:57:17;100194.06;;;13.56;73.53
76311;BME280;65120;59.304;18.294;2023-07-29T03:59:43;100198.31;;;13.58;73.73
76311;BME280;65120;59.304;18.294;2023-07-29T04:02:10;100189.53;;;13.59;73.68
76311;BME280;65120;59.304;18.294;2023-07-29T04:04:37;100195.56;;;13.61;73.79
76311;BME280;65120;59.304;18.294;2023-07-29T04:07:05;100176.66;;;13.53;73.88
76311;BME280;65120;59.304;18.294;2023-07-29T04:09:32;100193.63;;;13.66;74.05
76311;BME280;65120;59.304;18.294;2023-07-29T04:11:59;100192.69;;;13.67;74.20
76311;BME280;65120;59.304;18.294;2023-07-29T04:14:27;100203.03;;;13.72;74.25
76311;BME280;65120;59.304;18.294;2023-07-29T04:16:54;100198.50;;;13.76;74.22
76311;BME280;65120;59.304;18.294;2023-07-29T04:19:21;100190.50;;;13.79;73.93
76311;BME280;65120;59.304;18.294;2023-07-29T04:21:47;100197.38;;;13.81;74.13
76311;BME280;65120;59.304;18.294;2023-07-29T04:24:16;100191.22;;;13.82;74.32
76311;BME280;65120;59.304;18.294;2023-07-29T04:26:43;100193.66;;;13.87;74.33
76311;BME280;65120;59.304;18.294;2023-07-29T04:29:10;100196.94;;;13.92;74.46
76311;BME280;65120;59.304;18.294;2023-07-29T04:31:38;100194.19;;;13.95;74.55
76311;BME280;65120;59.304;18.294;2023-07-29T04:34:05;100184.47;;;13.97;74.72
76311;BME280;65120;59.304;18.294;2023-07-29T04:36:32;100190.31;;;14.04;74.78
76311;BME280;65120;59.304;18.294;2023-07-29T04:38:58;100194.47;;;14.09;74.96
76311;BME280;65120;59.304;18.294;2023-07-29T04:41:25;100198.63;;;14.15;74.78
76311;BME280;65120;59.304;18.294;2023-07-29T04:43:52;100196.69;;;14.18;74.79
76311;BME280;65120;59.304;18.294;2023-07-29T04:46:19;100205.91;;;14.29;74.78
76311;BME280;65120;59.304;18.294;2023-07-29T04:48:47;100206.41;;;14.37;74.96
76311;BME280;65120;59.304;18.294;2023-07-29T04:51:14;100203.53;;;14.43;74.68
76311;BME280;65120;59.304;18.294;2023-07-29T04:53:40;100200.56;;;14.51;74.75
76311;BME280;65120;59.304;18.294;2023-07-29T04:56:07;100207.28;;;14.58;74.90
76311;BME280;65120;59.304;18.294;2023-07-29T04:58:34;100199.84;;;14.68;74.63
76311;BME280;65120;59.304;18.294;2023-07-29T05:01:01;100168.84;;;14.55;74.45
76311;BME280;65120;59.304;18.294;2023-07-29T05:03:28;100199.03;;;14.86;74.54
76311;BME280;65120;59.304;18.294;2023-07-29T05:05:57;100202.78;;;14.99;74.48
76311;BME280;65120;59.304;18.294;2023-07-29T05:08:24;100199.66;;;15.10;74.25
76311;BME280;65120;59.304;18.294;2023-07-29T05:10:52;100199.22;;;15.19;74.14
76311;BME280;65120;59.304;18.294;2023-07-29T05:13:19;100200.38;;;15.33;73.89
76311;BME280;65120;59.304;18.294;2023-07-29T05:15:47;100192.13;;;15.40;73.48
76311;BME280;65120;59.304;18.294;2023-07-29T05:18:14;100196.72;;;15.54;73.41
76311;BME280;65120;59.304;18.294;2023-07-29T05:20:41;100201.41;;;15.66;73.61
76311;BME280;65120;59.304;18.294;2023-07-29T05:23:09;100197.56;;;15.73;73.13
76311;BME280;65120;59.304;18.294;2023-07-29T05:25:36;100201.13;;;15.90;72.90
76311;BME280;65120;59.304;18.294;2023-07-29T05:28:03;100195.41;;;15.99;72.94
76311;BME280;65120;59.304;18.294;2023-07-29T05:30:30;100204.50;;;16.11;72.78
76311;BME280;65120;59.304;18.294;2023-07-29T05:32:59;100190.22;;;16.15;71.77
76311;BME280;65120;59.304;18.294;2023-07-29T05:35:26;100199.81;;;16.33;71.90
76311;BME280;65120;59.304;18.294;2023-07-29T05:37:53;100198.41;;;16.44;71.82
76311;BME280;65120;59.304;18.294;2023-07-29T05:40:21;100201.34;;;16.55;71.73
76311;BME280;65120;59.304;18.294;2023-07-29T05:42:48;100199.94;;;16.65;71.57
76311;BME280;65120;59.304;18.294;2023-07-29T05:45:15;100196.03;;;16.72;71.48
76311;BME280;65120;59.304;18.294;2023-07-29T05:47:42;100199.94;;;16.82;71.19
76311;BME280;65120;59.304;18.294;2023-07-29T05:50:09;100196.78;;;16.92;70.90
76311;BME280;65120;59.304;18.294;2023-07-29T05:52:37;100198.16;;;16.99;70.86
76311;BME280;65120;59.304;18.294;2023-07-29T05:55:04;100203.88;;;17.07;70.68
76311;BME280;65120;59.304;18.294;2023-07-29T05:57:32;100213.16;;;17.14;70.38
76311;BME280;65120;59.304;18.294;2023-07-29T05:59:59;100203.97;;;17.21;69.93
76311;BME280;65120;59.304;18.294;2023-07-29T06:02:26;100202.75;;;17.27;69.93
76311;BME280;65120;59.304;18.294;2023-07-29T06:04:53;100201.75;;;17.29;69.96
76311;BME280;65120;59.304;18.294;2023-07-29T06:07:20;100189.31;;;17.31;69.71
76311;BME280;65120;59.304;18.294;2023-07-29T06:09:47;100193.16;;;17.42;69.77
76311;BME280;65120;59.304;18.294;2023-07-29T06:12:14;100199.78;;;17.49;69.28
76311;BME280;65120;59.304;18.294;2023-07-29T06:14:42;100197.81;;;17.52;68.96
76311;BME280;65120;59.304;18.294;2023-07-29T06:17:09;100206.28;;;17.59;69.08
76311;BME280;65120;59.304;18.294;2023-07-29T06:19:36;100199.84;;;17.63;69.06
76311;BME280;65120;59.304;18.294;2023-07-29T06:22:04;100205.75;;;17.68;68.50
76311;BME280;65120;59.304;18.294;2023-07-29T06:24:31;100209.88;;;17.72;68.46
76311;BME280;65120;59.304;18.294;2023-07-29T06:26:58;100211.50;;;17.75;68.26
76311;BME280;65120;59.304;18.294;2023-07-29T06:29:25;100201.63;;;17.79;67.91
76311;BME280;65120;59.304;18.294;2023-07-29T06:31:53;100198.84;;;17.82;67.96
76311;BME280;65120;59.304;18.294;2023-07-29T06:34:20;100202.22;;;17.84;67.55
76311;BME280;65120;59.304;18.294;2023-07-29T06:36:47;100211.78;;;17.86;67.71
76311;BME280;65120;59.304;18.294;2023-07-29T06:39:14;100210.75;;;17.89;67.75
76311;BME280;65120;59.304;18.294;2023-07-29T06:41:41;100206.25;;;17.91;67.56
76311;BME280;65120;59.304;18.294;2023-07-29T06:44:08;100206.06;;;17.94;67.25
76311;BME280;65120;59.304;18.294;2023-07-29T06:46:35;100208.53;;;17.97;67.45
76311;BME280;65120;59.304;18.294;2023-07-29T06:49:05;100204.00;;;17.99;67.54
76311;BME280;65120;59.304;18.294;2023-07-29T06:51:32;100191.13;;;17.93;67.02
76311;BME280;65120;59.304;18.294;2023-07-29T06:54:00;100201.00;;;18.05;66.99
76311;BME280;65120;59.304;18.294;2023-07-29T06:56:27;100199.13;;;18.07;67.22
76311;BME280;65120;59.304;18.294;2023-07-29T06:58:54;100204.13;;;18.12;67.09
76311;BME280;65120;59.304;18.294;2023-07-29T07:01:21;100203.16;;;18.13;67.30
76311;BME280;65120;59.304;18.294;2023-07-29T07:03:48;100205.47;;;18.19;67.34
76311;BME280;65120;59.304;18.294;2023-07-29T07:06:16;100204.25;;;18.25;67.21
76311;BME280;65120;59.304;18.294;2023-07-29T07:08:43;100208.41;;;18.29;66.94
76311;BME280;65120;59.304;18.294;2023-07-29T07:11:09;100214.28;;;18.34;66.78
76311;BME280;65120;59.304;18.294;2023-07-29T07:13:36;100220.16;;;18.39;67.05
76311;BME280;65120;59.304;18.294;2023-07-29T07:16:03;100218.84;;;18.46;66.81
76311;BME280;65120;59.304;18.294;2023-07-29T07:18:30;100222.06;;;18.51;66.50
76311;BME280;65120;59.304;18.294;2023-07-29T07:20:57;100218.06;;;18.58;66.51
76311;BME280;65120;59.304;18.294;2023-07-29T07:23:25;100217.53;;;18.68;66.30
76311;BME280;65120;59.304;18.294;2023-07-29T07:25:52;100219.66;;;18.77;66.26
76311;BME280;65120;59.304;18.294;2023-07-29T07:28:19;100220.13;;;18.83;65.78
76311;BME280;65120;59.304;18.294;2023-07-29T07:30:46;100222.22;;;18.93;65.23
76311;BME280;65120;59.304;18.294;2023-07-29T07:33:12;100225.13;;;19.02;65.53
76311;BME280;65120;59.304;18.294;2023-07-29T07:35:39;100220.00;;;19.14;65.30
76311;BME280;65120;59.304;18.294;2023-07-29T07:38:07;100221.03;;;19.25;65.36
76311;BME280;65120;59.304;18.294;2023-07-29T07:40:36;100219.50;;;19.36;64.92
76311;BME280;65120;59.304;18.294;2023-07-29T07:43:03;100211.63;;;19.48;64.18
76311;BME280;65120;59.304;18.294;2023-07-29T07:45:31;100210.81;;;19.61;64.57
76311;BME280;65120;59.304;18.294;2023-07-29T07:47:58;100211.13;;;19.70;64.28
76311;BME280;65120;59.304;18.294;2023-07-29T07:50:25;100202.34;;;19.83;64.31
76311;BME280;65120;59.304;18.294;2023-07-29T07:52:55;100205.97;;;19.94;64.00
76311;BME280;65120;59.304;18.294;2023-07-29T07:55:21;100207.81;;;20.07;63.44
76311;BME280;65120;59.304;18.294;2023-07-29T07:57:50;100201.16;;;20.14;63.30
76311;BME280;65120;59.304;18.294;2023-07-29T08:00:16;100205.22;;;20.32;62.72
76311;BME280;65120;59.304;18.294;2023-07-29T08:02:45;100209.75;;;20.43;62.35
76311;BME280;65120;59.304;18.294;2023-07-29T08:05:12;100214.06;;;20.58;62.22
76311;BME280;65120;59.304;18.294;2023-07-29T08:07:39;100214.19;;;20.70;61.71
76311;BME280;65120;59.304;18.294;2023-07-29T08:10:06;100201.31;;;20.76;61.52
76311;BME280;65120;59.304;18.294;2023-07-29T08:12:33;100201.09;;;20.92;60.97
76311;BME280;65120;59.304;18.294;2023-07-29T08:15:02;100200.31;;;21.03;60.62
76311;BME280;65120;59.304;18.294;2023-07-29T08:17:29;100195.09;;;21.14;60.68
76311;BME280;65120;59.304;18.294;2023-07-29T08:19:56;100195.28;;;21.24;59.87
76311;BME280;65120;59.304;18.294;2023-07-29T08:22:22;100186.97;;;21.28;59.49
76311;BME280;65120;59.304;18.294;2023-07-29T08:24:49;100196.63;;;21.42;58.76
76311;BME280;65120;59.304;18.294;2023-07-29T08:27:16;100187.13;;;21.51;58.21
76311;BME280;65120;59.304;18.294;2023-07-29T08:29:43;100190.91;;;21.60;58.24
76311;BME280;65120;59.304;18.294;2023-07-29T08:32:11;100197.25;;;21.70;58.02
76311;BME280;65120;59.304;18.294;2023-07-29T08:34:38;100203.94;;;21.75;57.94
76311;BME280;65120;59.304;18.294;2023-07-29T08:37:05;100194.53;;;21.83;58.05
76311;BME280;65120;59.304;18.294;2023-07-29T08:39:32;100198.44;;;21.90;57.42
76311;BME280;65120;59.304;18.294;2023-07-29T08:42:01;100198.56;;;21.99;57.66
76311;BME280;65120;59.304;18.294;2023-07-29T08:44:35;100189.28;;;22.05;57.01
76311;BME280;65120;59.304;18.294;2023-07-29T08:47:03;100192.97;;;22.15;56.30
76311;BME280;65120;59.304;18.294;2023-07-29T08:49:32;100194.19;;;22.22;56.31
76311;BME280;65120;59.304;18.294;2023-07-29T08:51:59;100198.09;;;22.30;55.47
76311;BME280;65120;59.304;18.294;2023-07-29T08:54:26;100191.56;;;22.34;55.49
76311;BME280;65120;59.304;18.294;2023-07-29T08:56:54;100190.25;;;22.39;55.31
76311;BME280;65120;59.304;18.294;2023-07-29T08:59:21;100188.94;;;22.45;55.32
76311;BME280;65120;59.304;18.294;2023-07-29T09:01:48;100186.66;;;22.52;54.88
76311;BME280;65120;59.304;18.294;2023-07-29T09:04:15;100194.28;;;22.56;54.45
76311;BME280;65120;59.304;18.294;2023-07-29T09:06:45;100189.56;;;22.60;55.21
76311;BME280;65120;59.304;18.294;2023-07-29T09:09:13;100181.94;;;22.66;54.37
76311;BME280;65120;59.304;18.294;2023-07-29T09:11:40;100196.69;;;22.71;54.78
76311;BME280;65120;59.304;18.294;2023-07-29T09:14:07;100198.88;;;22.77;54.03
76311;BME280;65120;59.304;18.294;2023-07-29T09:16:34;100196.69;;;22.82;52.80
76311;BME280;65120;59.304;18.294;2023-07-29T09:19:02;100190.88;;;22.88;52.50
76311;BME280;65120;59.304;18.294;2023-07-29T09:21:29;100190.44;;;22.94;52.57
76311;BME280;65120;59.304;18.294;2023-07-29T09:24:02;100191.91;;;22.98;52.41
76311;BME280;65120;59.304;18.294;2023-07-29T09:26:30;100196.88;;;23.03;52.52
76311;BME280;65120;59.304;18.294;2023-07-29T09:28:58;100191.16;;;23.07;52.48
76311;BME280;65120;59.304;18.294;2023-07-29T09:31:27;100195.88;;;23.15;52.74
76311;BME280;65120;59.304;18.294;2023-07-29T09:33:56;100189.31;;;23.19;52.62
76311;BME280;65120;59.304;18.294;2023-07-29T09:36:24;100207.59;;;23.24;52.07
76311;BME280;65120;59.304;18.294;2023-07-29T09:38:53;100199.38;;;23.27;51.36
76311;BME280;65120;59.304;18.294;2023-07-29T09:41:23;100193.69;;;23.31;51.34
76311;BME280;65120;59.304;18.294;2023-07-29T09:43:55;100200.31;;;23.37;51.81
76311;BME280;65120;59.304;18.294;2023-07-29T09:46:23;100194.00;;;23.38;51.31
76311;BME280;65120;59.304;18.294;2023-07-29T09:48:53;100185.75;;;23.41;51.45
76311;BME280;65120;59.304;18.294;2023-07-29T09:51:20;100200.31;;;23.48;51.82
76311;BME280;65120;59.304;18.294;2023-07-29T09:53:48;100194.47;;;23.54;51.11
76311;BME280;65120;59.304;18.294;2023-07-29T09:56:16;100172.31;;;23.43;50.29
76311;BME280;65120;59.304;18.294;2023-07-29T09:58:45;100197.34;;;23.63;50.15
76311;BME280;65120;59.304;18.294;2023-07-29T10:01:12;100194.53;;;23.64;50.71
76311;BME280;65120;59.304;18.294;2023-07-29T10:03:39;100195.13;;;23.68;50.84
76311;BME280;65120;59.304;18.294;2023-07-29T10:06:07;100191.28;;;23.72;50.81
76311;BME280;65120;59.304;18.294;2023-07-29T10:08:34;100183.50;;;23.69;50.94
76311;BME280;65120;59.304;18.294;2023-07-29T10:11:05;100190.50;;;23.81;50.55
76311;BME280;65120;59.304;18.294;2023-07-29T10:13:32;100188.44;;;23.85;49.47
76311;BME280;65120;59.304;18.294;2023-07-29T10:16:02;100190.72;;;23.89;50.09
76311;BME280;65120;59.304;18.294;2023-07-29T10:18:30;100186.94;;;23.92;50.14
76311;BME280;65120;59.304;18.294;2023-07-29T10:20:58;100199.19;;;23.94;49.43
76311;BME280;65120;59.304;18.294;2023-07-29T10:23:26;100181.47;;;23.93;48.96
76311;BME280;65120;59.304;18.294;2023-07-29T10:25:59;100181.63;;;23.92;49.16
76311;BME280;65120;59.304;18.294;2023-07-29T10:28:30;100182.94;;;23.97;48.24
76311;BME280;65120;59.304;18.294;2023-07-29T10:30:58;100154.28;;;23.78;48.32
76311;BME280;65120;59.304;18.294;2023-07-29T10:33:26;100175.19;;;23.94;48.53
76311;BME280;65120;59.304;18.294;2023-07-29T10:35:54;100183.66;;;23.99;48.37
76311;BME280;65120;59.304;18.294;2023-07-29T10:38:21;100166.44;;;23.92;48.44
76311;BME280;65120;59.304;18.294;2023-07-29T10:40:51;100184.34;;;24.01;48.48
76311;BME280;65120;59.304;18.294;2023-07-29T10:43:25;100177.06;;;24.04;48.17
76311;BME280;65120;59.304;18.294;2023-07-29T10:45:52;100179.63;;;24.05;47.90
76311;BME280;65120;59.304;18.294;2023-07-29T10:48:42;100177.66;;;24.07;48.61
76311;BME280;65120;59.304;18.294;2023-07-29T10:51:28;100185.66;;;24.07;48.58
76311;BME280;65120;59.304;18.294;2023-07-29T10:54:00;100184.69;;;24.08;47.86
76311;BME280;65120;59.304;18.294;2023-07-29T10:56:29;100188.47;;;24.06;47.88
76311;BME280;65120;59.304;18.294;2023-07-29T10:58:57;100185.53;;;24.09;47.63
76311;BME280;65120;59.304;18.294;2023-07-29T11:01:27;100181.88;;;24.10;47.34
76311;BME280;65120;59.304;18.294;2023-07-29T11:04:25;100186.25;;;24.11;47.61
76311;BME280;65120;59.304;18.294;2023-07-29T11:09:53;100182.88;;;24.09;46.49
76311;BME280;65120;59.304;18.294;2023-07-29T11:12:41;100176.69;;;24.08;46.60
76311;BME280;65120;59.304;18.294;2023-07-29T11:15:19;100174.28;;;24.05;46.69
76311;BME280;65120;59.304;18.294;2023-07-29T11:17:48;100185.06;;;24.04;46.55
76311;BME280;65120;59.304;18.294;2023-07-29T11:20:17;100186.06;;;24.02;45.93
76311;BME280;65120;59.304;18.294;2023-07-29T11:22:45;100191.50;;;24.01;46.20
76311;BME280;65120;59.304;18.294;2023-07-29T11:25:13;100182.66;;;24.00;45.53
76311;BME280;65120;59.304;18.294;2023-07-29T11:27:40;100195.16;;;24.00;46.29
76311;BME280;65120;59.304;18.294;2023-07-29T11:30:08;100196.13;;;23.99;46.07
76311;BME280;65120;59.304;18.294;2023-07-29T11:32:36;100189.00;;;23.99;45.68
76311;BME280;65120;59.304;18.294;2023-07-29T11:35:05;100191.66;;;23.99;45.45
76311;BME280;65120;59.304;18.294;2023-07-29T11:37:34;100191.66;;;23.99;44.80
76311;BME280;65120;59.304;18.294;2023-07-29T11:40:02;100182.47;;;23.92;45.43
76311;BME280;65120;59.304;18.294;2023-07-29T11:42:31;100187.28;;;23.98;44.55
76311;BME280;65120;59.304;18.294;2023-07-29T11:44:59;100181.25;;;23.96;44.08
76311;BME280;65120;59.304;18.294;2023-07-29T11:47:26;100189.25;;;23.96;44.96
76311;BME280;65120;59.304;18.294;2023-07-29T11:49:53;100141.34;;;23.74;44.79
76311;BME280;65120;59.304;18.294;2023-07-29T11:52:20;100173.72;;;23.90;44.42
76311;BME280;65120;59.304;18.294;2023-07-29T11:54:49;100192.88;;;23.95;44.31
76311;BME280;65120;59.304;18.294;2023-07-29T11:57:17;100196.53;;;23.94;44.33
76311;BME280;65120;59.304;18.294;2023-07-29T11:59:45;100188.63;;;23.93;43.91
76311;BME280;65120;59.304;18.294;2023-07-29T12:02:14;100193.13;;;23.92;43.70
76311;BME280;65120;59.304;18.294;2023-07-29T12:04:43;100187.78;;;23.92;43.83
76311;BME280;65120;59.304;18.294;2023-07-29T12:07:12;100192.28;;;23.92;43.37
76311;BME280;65120;59.304;18.294;2023-07-29T12:09:40;100198.47;;;23.92;43.01
76311;BME280;65120;59.304;18.294;2023-07-29T12:12:09;100195.06;;;23.90;42.94
76311;BME280;65120;59.304;18.294;2023-07-29T12:14:36;100195.31;;;23.87;43.09
76311;BME280;65120;59.304;18.294;2023-07-29T12:17:05;100191.09;;;23.85;43.30
76311;BME280;65120;59.304;18.294;2023-07-29T12:19:32;100194.63;;;23.85;43.71
76311;BME280;65120;59.304;18.294;2023-07-29T12:22:00;100193.06;;;23.83;43.41
76311;BME280;65120;59.304;18.294;2023-07-29T12:24:29;100186.28;;;23.78;43.29
76311;BME280;65120;59.304;18.294;2023-07-29T12:26:56;100198.78;;;23.78;43.42
76311;BME280;65120;59.304;18.294;2023-07-29T12:29:25;100196.00;;;23.79;42.50
76311;BME280;65120;59.304;18.294;2023-07-29T12:31:57;100188.25;;;23.76;42.66
76311;BME280;65120;59.304;18.294;2023-07-29T12:34:26;100189.34;;;23.74;42.74
76311;BME280;65120;59.304;18.294;2023-07-29T12:36:53;100195.78;;;23.71;43.10
76311;BME280;65120;59.304;18.294;2023-07-29T12:39:22;100189.59;;;23.71;43.41
76311;BME280;65120;59.304;18.294;2023-07-29T12:41:51;100188.63;;;23.72;43.12
76311;BME280;65120;59.304;18.294;2023-07-29T12:44:18;100184.28;;;23.71;42.96
76311;BME280;65120;59.304;18.294;2023-07-29T12:46:47;100188.72;;;23.70;43.11